Time;durP1;ratioP1;P1;durP2;ratioP2;P2;SDS_P1;SDS_P2;PMS_P1;PMS_P2;Temp;Humidity;BMP_temperature;BMP_pressure;BME280_temperature;BME280_humidity;BME280_pressure;Samples;Min_cycle;Max_cycle;Signal;HPM_P1;HPM_P2
2023/07/20 00:02:14;;;;;;;15.45;6.53;;;14.60;99.90;;;;;;4955385;28;20315;-61
2023/07/20 00:04:39;;;;;;;18.67;6.80;;;14.60;99.90;;;;;;4956113;28;20711;-60
2023/07/20 00:07:05;;;;;;;10.30;6.20;;;14.60;99.90;;;;;;4959769;28;20176;-61
2023/07/20 00:09:31;;;;;;;16.50;5.57;;;14.60;99.90;;;;;;4974629;28;20627;-60
2023/07/20 00:11:56;;;;;;;13.48;5.50;;;14.40;99.90;;;;;;4974632;28;20654;-60
2023/07/20 00:14:22;;;;;;;10.05;5.10;;;14.40;99.90;;;;;;4973327;28;20208;-61
2023/07/20 00:16:55;;;;;;;8.75;4.28;;;14.40;99.90;;;;;;4974548;28;20176;-60
2023/07/20 00:22:43;;;;;;;9.88;3.70;;;14.20;99.90;;;;;;4974309;28;20258;-60
2023/07/20 00:25:11;;;;;;;4.47;2.80;;;14.00;99.90;;;;;;4973244;28;20215;-60
2023/07/20 00:27:37;;;;;;;4.85;2.80;;;14.00;99.90;;;;;;4977931;28;20186;-61
2023/07/20 00:30:04;;;;;;;5.43;2.63;;;13.80;99.90;;;;;;4993800;28;20262;-60
2023/07/20 00:32:30;;;;;;;5.03;2.50;;;14.00;99.90;;;;;;4993844;28;20186;-60
2023/07/20 00:34:55;;;;;;;5.88;2.60;;;14.00;99.90;;;;;;4979515;28;20266;-60
2023/07/20 00:37:21;;;;;;;3.45;2.03;;;13.90;99.90;;;;;;4973734;28;20180;-60
2023/07/20 00:39:46;;;;;;;10.27;2.47;;;13.90;99.90;;;;;;4973124;28;20196;-60
2023/07/20 00:42:12;;;;;;;3.63;1.77;;;13.90;99.90;;;;;;4972854;28;20219;-60
2023/07/20 00:44:38;;;;;;;4.13;2.55;;;13.90;99.90;;;;;;4972491;28;20632;-64
2023/07/20 00:47:05;;;;;;;8.35;2.00;;;13.80;99.90;;;;;;4975165;28;20566;-60
2023/07/20 00:49:31;;;;;;;6.28;1.70;;;13.70;99.90;;;;;;4993525;28;20179;-59
2023/07/20 00:51:57;;;;;;;3.22;1.50;;;13.60;99.90;;;;;;4989380;28;20548;-60
2023/07/20 00:54:23;;;;;;;2.53;1.40;;;13.50;99.90;;;;;;4984950;28;20682;-60
2023/07/20 00:56:50;;;;;;;4.40;1.50;;;13.70;99.90;;;;;;4973977;28;20173;-60
2023/07/20 00:59:15;;;;;;;2.00;1.47;;;13.70;99.90;;;;;;4973861;28;20182;-60
2023/07/20 01:01:41;;;;;;;3.45;1.92;;;13.60;99.90;;;;;;4973810;28;20179;-60
2023/07/20 01:04:07;;;;;;;2.60;1.80;;;13.60;99.90;;;;;;4974970;28;20662;-60
2023/07/20 01:06:38;;;;;;;2.88;1.90;;;13.60;99.90;;;;;;4973688;28;20541;-61
2023/07/20 01:09:37;;;;;;;3.67;2.00;;;13.60;99.90;;;;;;4973836;28;20254;-60
2023/07/20 01:12:12;;;;;;;6.35;2.60;;;13.60;99.90;;;;;;4973659;28;20168;-60
2023/07/20 01:14:38;;;;;;;5.80;2.47;;;13.60;99.90;;;;;;4973275;28;20237;-60
2023/07/20 01:17:04;;;;;;;6.38;2.60;;;13.60;99.90;;;;;;4973192;28;20176;-59
2023/07/20 01:19:30;;;;;;;7.35;2.92;;;13.60;99.90;;;;;;4973223;28;20550;-59
2023/07/20 01:22:14;;;;;;;8.35;2.30;;;13.50;99.90;;;;;;4973354;28;20176;-59
2023/07/20 01:24:52;;;;;;;5.53;2.47;;;13.50;99.90;;;;;;4973164;28;20188;-60
2023/07/20 01:27:38;;;;;;;6.75;2.75;;;13.50;99.90;;;;;;4973311;28;20218;-59
2023/07/20 01:30:27;;;;;;;3.53;2.22;;;13.50;99.90;;;;;;4972994;28;20206;-60
2023/07/20 01:32:56;;;;;;;4.78;2.20;;;13.50;99.90;;;;;;4973366;28;20639;-59
2023/07/20 01:35:27;;;;;;;4.47;2.03;;;13.50;99.90;;;;;;4972979;28;20183;-60
2023/07/20 01:37:53;;;;;;;5.15;1.90;;;13.50;99.90;;;;;;4973177;28;20179;-59
2023/07/20 01:40:21;;;;;;;5.72;2.15;;;13.50;99.90;;;;;;4976723;28;20266;-59
2023/07/20 01:42:47;;;;;;;5.03;1.90;;;13.50;99.90;;;;;;4973090;28;20327;-59
2023/07/20 01:45:14;;;;;;;5.07;2.10;;;13.50;99.90;;;;;;4972761;28;20203;-59
2023/07/20 01:47:40;;;;;;;2.95;1.58;;;13.40;99.90;;;;;;4972061;28;20313;-59
2023/07/20 01:50:06;;;;;;;5.07;1.90;;;13.30;99.90;;;;;;4972135;28;20596;-59
2023/07/20 01:52:32;;;;;;;6.20;2.05;;;13.20;99.90;;;;;;4972178;28;20172;-59
2023/07/20 01:54:57;;;;;;;3.80;1.48;;;13.20;99.90;;;;;;4972521;28;20246;-59
2023/07/20 01:57:24;;;;;;;3.97;1.65;;;13.00;99.90;;;;;;4978857;28;20230;-59
2023/07/20 01:59:50;;;;;;;3.03;1.60;;;13.00;99.90;;;;;;4992245;28;20167;-62
2023/07/20 02:02:15;;;;;;;1.83;1.50;;;12.90;99.90;;;;;;4974363;28;20215;-63
2023/07/20 02:04:41;;;;;;;2.63;1.60;;;12.90;99.90;;;;;;4972918;28;20538;-63
2023/07/20 02:07:06;;;;;;;7.17;1.90;;;12.80;99.90;;;;;;4972187;28;20635;-63
2023/07/20 02:09:32;;;;;;;3.13;1.73;;;12.80;99.90;;;;;;4973631;28;20258;-63
2023/07/20 02:11:58;;;;;;;2.63;1.70;;;12.80;99.90;;;;;;4972287;28;20183;-63
2023/07/20 02:14:23;;;;;;;3.60;1.40;;;12.90;99.90;;;;;;4972596;28;20186;-63
2023/07/20 02:16:52;;;;;;;3.43;1.67;;;12.90;99.90;;;;;;4972477;28;20167;-64
2023/07/20 02:19:18;;;;;;;2.53;1.77;;;12.90;99.90;;;;;;4972474;28;20195;-63
2023/07/20 02:21:44;;;;;;;5.90;1.80;;;12.90;99.90;;;;;;4972006;28;20274;-63
2023/07/20 02:24:10;;;;;;;2.63;1.73;;;12.90;99.90;;;;;;4971771;28;20266;-64
2023/07/20 02:26:35;;;;;;;3.20;1.80;;;12.90;99.90;;;;;;4972400;28;20219;-63
2023/07/20 02:29:04;;;;;;;5.57;1.93;;;;;;;;;;4972361;28;20598;-63
2023/07/20 02:31:30;;;;;;;5.37;2.00;;;12.90;99.90;;;;;;4971899;28;20211;-61
2023/07/20 02:33:56;;;;;;;7.70;2.33;;;12.90;99.90;;;;;;4972182;28;20281;-62
2023/07/20 02:36:22;;;;;;;3.17;1.83;;;12.70;99.90;;;;;;4972186;28;20703;-62
2023/07/20 02:38:47;;;;;;;5.77;1.83;;;12.80;99.90;;;;;;4985895;28;20179;-63
2023/07/20 02:41:14;;;;;;;4.47;1.77;;;12.90;99.90;;;;;;4986884;28;20266;-63
2023/07/20 02:43:39;;;;;;;4.77;1.70;;;12.80;99.90;;;;;;4971678;28;20220;-62
2023/07/20 02:46:05;;;;;;;5.10;2.00;;;12.80;99.90;;;;;;4971059;28;20188;-63
2023/07/20 02:48:30;;;;;;;7.27;2.00;;;12.80;99.90;;;;;;4971487;28;20286;-65
2023/07/20 02:50:56;;;;;;;4.40;1.90;;;12.80;99.90;;;;;;4971441;28;20214;-63
2023/07/20 02:53:22;;;;;;;4.60;1.92;;;;;;;;;;4968402;28;20243;-63
2023/07/20 02:55:47;;;;;;;2.92;1.63;;;12.80;99.90;;;;;;4963180;28;20381;-62
2023/07/20 02:58:13;;;;;;;10.67;1.90;;;12.80;99.90;;;;;;4962357;28;20547;-63
2023/07/20 03:00:39;;;;;;;2.33;1.60;;;12.80;99.90;;;;;;4978155;28;20226;-63
2023/07/20 03:03:09;;;;;;;2.73;1.50;;;12.70;99.90;;;;;;4977094;28;20563;-63
2023/07/20 03:05:35;;;;;;;1.83;1.30;;;12.60;99.90;;;;;;4977484;28;20187;-63
2023/07/20 03:08:02;;;;;;;4.80;1.60;;;12.40;99.90;;;;;;4978360;28;20263;-62
2023/07/20 03:10:28;;;;;;;2.60;1.50;;;12.30;99.90;;;;;;4978023;28;20230;-62
2023/07/20 03:12:53;;;;;;;5.10;1.40;;;12.30;99.90;;;;;;4977694;28;20540;-62
2023/07/20 03:15:19;;;;;;;2.50;1.60;;;12.30;99.90;;;;;;4977718;28;20521;-63
2023/07/20 03:17:45;;;;;;;3.90;1.40;;;12.20;99.90;;;;;;4978164;28;20769;-64
2023/07/20 03:20:12;;;;;;;3.97;1.80;;;12.10;99.90;;;;;;4977362;28;20176;-64
2023/07/20 03:22:38;;;;;;;6.23;1.80;;;12.10;99.90;;;;;;4977591;28;20298;-63
2023/07/20 03:25:04;;;;;;;4.67;1.63;;;12.20;99.90;;;;;;4977656;28;20663;-63
2023/07/20 03:27:30;;;;;;;3.60;1.53;;;12.20;99.90;;;;;;4977179;28;20274;-63
2023/07/20 03:29:55;;;;;;;3.00;1.87;;;12.20;99.90;;;;;;4977850;28;20266;-63
2023/07/20 03:32:21;;;;;;;3.83;2.07;;;12.10;99.90;;;;;;4977354;28;20669;-63
2023/07/20 03:34:46;;;;;;;3.10;1.90;;;12.10;99.90;;;;;;4977669;28;20651;-63
2023/07/20 03:37:13;;;;;;;5.33;2.00;;;12.20;99.90;;;;;;4977828;28;20188;-64
2023/07/20 03:39:39;;;;;;;2.33;1.80;;;12.20;99.90;;;;;;4977753;28;20206;-64
2023/07/20 03:42:06;;;;;;;6.17;2.10;;;12.20;99.90;;;;;;4977272;28;20627;-61
2023/07/20 03:44:31;;;;;;;4.70;2.00;;;12.20;99.90;;;;;;4977236;28;20805;-61
2023/07/20 03:46:57;;;;;;;7.63;2.13;;;12.20;99.90;;;;;;4977847;28;20211;-61
2023/07/20 03:49:23;;;;;;;5.83;2.30;;;12.20;99.90;;;;;;4977645;28;20215;-61
2023/07/20 03:51:48;;;;;;;4.57;2.10;;;12.20;99.90;;;;;;4977012;28;20187;-61
2023/07/20 03:54:14;;;;;;;3.37;1.60;;;12.20;99.90;;;;;;4994897;28;20237;-60
2023/07/20 03:56:40;;;;;;;5.33;1.60;;;12.00;99.90;;;;;;4993334;28;20173;-62
2023/07/20 03:59:05;;;;;;;5.60;1.80;;;11.80;99.90;;;;;;4977877;28;20695;-61
2023/07/20 04:01:37;;;;;;;3.97;1.80;;;11.80;99.90;;;;;;4976787;28;20234;-62
2023/07/20 04:04:07;;;;;;;4.63;2.00;;;11.70;99.90;;;;;;4977646;28;20223;-62
2023/07/20 04:06:33;;;;;;;5.37;2.00;;;11.70;99.90;;;;;;4977805;28;20226;-61
2023/07/20 04:08:58;;;;;;;2.90;1.77;;;11.80;99.90;;;;;;4982819;28;20168;-61
2023/07/20 04:11:24;;;;;;;3.80;1.80;;;11.80;99.90;;;;;;4985398;28;20242;-62
2023/07/20 04:13:50;;;;;;;2.73;1.80;;;11.80;99.90;;;;;;4974605;28;20180;-61
2023/07/20 04:16:15;;;;;;;4.63;1.80;;;11.80;99.90;;;;;;4974787;28;20233;-61
2023/07/20 04:18:41;;;;;;;4.43;1.77;;;11.70;99.90;;;;;;4974945;28;20279;-62
2023/07/20 04:21:08;;;;;;;2.37;1.70;;;11.70;99.90;;;;;;4974360;28;20658;-61
2023/07/20 04:23:35;;;;;;;6.23;2.10;;;11.80;99.90;;;;;;4961337;28;20215;-62
2023/07/20 04:26:01;;;;;;;8.07;2.17;;;11.70;99.90;;;;;;4974473;28;20226;-61
2023/07/20 04:28:27;;;;;;;7.13;2.00;;;11.90;99.90;;;;;;4974459;28;20627;-61
2023/07/20 04:30:53;;;;;;;5.57;1.80;;;11.90;99.90;;;;;;4974404;28;20187;-61
2023/07/20 04:33:19;;;;;;;5.20;1.90;;;11.90;99.90;;;;;;4974189;28;20180;-62
2023/07/20 04:35:45;;;;;;;4.40;1.80;;;11.80;99.90;;;;;;4973981;28;20176;-61
2023/07/20 04:38:11;;;;;;;4.87;1.70;;;11.70;99.90;;;;;;4972957;28;20210;-62
2023/07/20 04:40:36;;;;;;;2.73;1.87;;;11.80;99.90;;;;;;4970290;28;20267;-61
2023/07/20 04:43:02;;;;;;;3.07;1.73;;;11.80;99.90;;;;;;4973706;28;20218;-61
2023/07/20 04:45:28;;;;;;;5.63;2.20;;;11.80;99.90;;;;;;4973956;28;20203;-61
2023/07/20 04:47:54;;;;;;;6.23;2.30;;;11.80;99.90;;;;;;4961223;28;20768;-61
2023/07/20 04:50:19;;;;;;;2.80;1.70;;;11.80;99.90;;;;;;4973843;28;20200;-61
2023/07/20 04:52:46;;;;;;;6.33;1.63;;;11.70;99.90;;;;;;4973045;28;20211;-62
2023/07/20 04:55:11;;;;;;;6.03;1.80;;;11.70;99.90;;;;;;4973426;28;20274;-62
2023/07/20 04:57:37;;;;;;;2.50;1.70;;;11.80;99.90;;;;;;4972577;28;20651;-62
2023/07/20 05:00:03;;;;;;;4.57;2.20;;;11.60;99.90;;;;;;4973083;28;20184;-61
2023/07/20 05:02:29;;;;;;;4.07;1.73;;;11.70;99.90;;;;;;4973731;28;20223;-62
2023/07/20 05:04:54;;;;;;;3.00;2.00;;;11.70;99.90;;;;;;4973699;28;20183;-62
2023/07/20 05:07:20;;;;;;;3.87;1.90;;;11.70;99.90;;;;;;4973486;28;20207;-63
2023/07/20 05:09:46;;;;;;;3.50;2.17;;;11.80;99.90;;;;;;4973652;28;20176;-62
2023/07/20 05:12:12;;;;;;;7.83;1.90;;;11.90;99.90;;;;;;4973553;28;20172;-63
2023/07/20 05:14:38;;;;;;;3.37;2.00;;;12.00;99.90;;;;;;4973463;28;20524;-63
2023/07/20 05:17:04;;;;;;;2.83;2.00;;;12.10;99.90;;;;;;4983566;28;20187;-63
2023/07/20 05:19:30;;;;;;;4.70;1.97;;;12.10;99.90;;;;;;4993001;28;20198;-62
2023/07/20 05:21:56;;;;;;;3.43;1.97;;;12.20;99.90;;;;;;4974446;28;20262;-63
2023/07/20 05:24:21;;;;;;;3.40;2.10;;;12.20;99.90;;;;;;4973452;28;20307;-63
2023/07/20 05:26:48;;;;;;;4.40;2.10;;;12.30;99.90;;;;;;4973134;28;20180;-63
2023/07/20 05:29:13;;;;;;;10.33;2.10;;;12.30;99.90;;;;;;4973200;28;20176;-62
2023/07/20 05:31:39;;;;;;;3.73;2.00;;;12.30;99.90;;;;;;4973279;28;20172;-62
2023/07/20 05:34:05;;;;;;;2.60;2.07;;;12.40;99.90;;;;;;4973306;28;20231;-61
2023/07/20 05:36:31;;;;;;;8.20;2.43;;;12.50;99.90;;;;;;4972677;28;20191;-61
2023/07/20 05:38:56;;;;;;;6.57;2.33;;;12.60;99.90;;;;;;4973213;28;20266;-61
2023/07/20 05:41:22;;;;;;;3.70;2.20;;;12.70;99.90;;;;;;4973021;28;20182;-61
2023/07/20 05:43:48;;;;;;;6.80;2.28;;;12.80;99.90;;;;;;4972791;28;20969;-62
2023/07/20 05:46:14;;;;;;;9.55;2.30;;;12.90;99.90;;;;;;4972219;28;20187;-60
2023/07/20 05:48:39;;;;;;;5.23;2.70;;;13.40;99.90;;;;;;4972776;28;20246;-61
2023/07/20 05:51:05;;;;;;;5.30;2.00;;;13.20;99.90;;;;;;4972247;28;20198;-61
2023/07/20 05:53:31;;;;;;;4.07;2.00;;;13.30;99.90;;;;;;4972997;28;20631;-61
2023/07/20 05:55:57;;;;;;;6.65;2.50;;;13.40;99.90;;;;;;4966752;28;20655;-64
2023/07/20 05:58:23;;;;;;;7.47;2.75;;;13.50;99.90;;;;;;4971291;28;20184;-68
2023/07/20 06:00:50;;;;;;;3.80;2.28;;;13.70;99.90;;;;;;4964663;28;20235;-66
2023/07/20 06:03:21;;;;;;;10.55;2.53;;;13.80;99.90;;;;;;4971629;28;20351;-64
2023/07/20 06:05:46;;;;;;;2.60;2.08;;;13.90;99.90;;;;;;4969555;28;20322;-63
2023/07/20 06:08:12;;;;;;;5.97;2.65;;;13.90;99.90;;;;;;4972654;28;20207;-64
2023/07/20 06:10:38;;;;;;;3.55;2.42;;;14.00;99.90;;;;;;4972172;28;20246;-64
2023/07/20 06:13:04;;;;;;;5.78;2.60;;;;;;;;;;4972205;28;20656;-62
2023/07/20 06:15:36;;;;;;;5.85;2.00;;;14.10;99.90;;;;;;4972308;28;20172;-63
2023/07/20 06:18:03;;;;;;;7.15;1.77;;;14.30;99.90;;;;;;4954293;28;20174;-64
2023/07/20 06:20:30;;;;;;;3.03;1.83;;;14.40;99.90;;;;;;4960155;28;20187;-64
2023/07/20 06:22:56;;;;;;;3.70;2.03;;;14.60;99.90;;;;;;4972039;28;20250;-63
2023/07/20 06:25:22;;;;;;;4.20;1.80;;;14.50;99.90;;;;;;4972313;28;20227;-63
2023/07/20 06:27:50;;;;;;;3.50;1.80;;;14.70;99.90;;;;;;4972058;28;20178;-64
2023/07/20 06:30:15;;;;;;;4.57;1.98;;;14.60;99.90;;;;;;4971999;28;20243;-64
2023/07/20 06:32:41;;;;;;;3.63;1.95;;;14.70;99.90;;;;;;4971863;28;20175;-64
2023/07/20 06:35:08;;;;;;;3.45;1.77;;;14.70;99.90;;;;;;4971815;28;20280;-63
2023/07/20 06:37:34;;;;;;;6.55;2.00;;;14.80;99.90;;;;;;4972085;28;20179;-64
2023/07/20 06:39:59;;;;;;;2.38;1.70;;;14.90;99.90;;;;;;4972197;28;20167;-63
2023/07/20 06:42:25;;;;;;;3.88;1.80;;;14.80;99.90;;;;;;4971717;28;20218;-63
2023/07/20 06:44:51;;;;;;;7.07;1.80;;;;;;;;;;4972254;28;20176;-63
2023/07/20 06:47:16;;;;;;;2.88;1.80;;;14.80;99.90;;;;;;4971607;28;20274;-63
2023/07/20 06:49:42;;;;;;;9.55;2.50;;;14.90;99.90;;;;;;4972184;28;20168;-68
2023/07/20 06:52:08;;;;;;;8.02;2.00;;;;;;;;;;4971084;28;20172;-68
2023/07/20 06:54:34;;;;;;;7.60;2.50;;;15.00;99.90;;;;;;4970493;28;20172;-68
2023/07/20 06:56:59;;;;;;;3.78;2.17;;;15.00;99.90;;;;;;4971584;28;20227;-69
2023/07/20 06:59:25;;;;;;;6.63;2.90;;;15.00;99.90;;;;;;4971554;28;20184;-68
2023/07/20 07:01:50;;;;;;;8.20;2.22;;;15.10;99.90;;;;;;4971253;28;20187;-68
2023/07/20 07:04:16;;;;;;;4.70;1.80;;;15.20;99.90;;;;;;4971599;28;20271;-68
2023/07/20 07:06:42;;;;;;;6.75;1.80;;;15.20;99.90;;;;;;4971974;28;20701;-67
2023/07/20 07:09:08;;;;;;;4.50;1.73;;;15.30;99.90;;;;;;4971367;28;20183;-60
2023/07/20 07:11:34;;;;;;;1.80;1.45;;;15.30;99.90;;;;;;4969254;28;20180;-62
2023/07/20 07:13:59;;;;;;;2.53;1.13;;;15.40;99.90;;;;;;4971261;28;20667;-61
2023/07/20 07:16:25;;;;;;;4.38;1.63;;;15.50;99.90;;;;;;4984045;28;20207;-62
2023/07/20 07:18:51;;;;;;;4.07;1.80;;;15.60;99.90;;;;;;4971710;28;20164;-62
2023/07/20 07:21:17;;;;;;;3.47;1.60;;;15.70;99.90;;;;;;4971823;28;20214;-62
2023/07/20 07:23:43;;;;;;;4.95;1.80;;;15.80;99.90;;;;;;4971073;28;20744;-62
2023/07/20 07:26:09;;;;;;;4.03;1.50;;;16.00;99.90;;;;;;4969883;28;20176;-63
2023/07/20 07:28:36;;;;;;;2.70;1.45;;;16.00;99.90;;;;;;4970962;28;20272;-63
2023/07/20 07:31:05;;;;;;;3.13;2.10;;;16.10;99.90;;;;;;4971578;28;20164;-66
2023/07/20 07:33:31;;;;;;;5.18;1.63;;;16.30;99.90;;;;;;4970796;28;20176;-68
2023/07/20 07:35:57;;;;;;;3.15;1.90;;;16.30;99.90;;;;;;4971252;28;20172;-69
2023/07/20 07:38:23;;;;;;;6.65;1.83;;;16.40;99.90;;;;;;4971016;28;20353;-66
2023/07/20 07:40:48;;;;;;;4.03;1.75;;;16.30;99.90;;;;;;4970894;28;20203;-60
2023/07/20 07:43:14;;;;;;;3.90;1.77;;;16.40;99.90;;;;;;4970911;28;20219;-65
2023/07/20 07:45:40;;;;;;;2.92;1.70;;;16.50;99.90;;;;;;4972080;28;20175;-66
2023/07/20 07:48:07;;;;;;;4.95;1.77;;;16.60;99.90;;;;;;4974289;28;20215;-65
2023/07/20 07:50:33;;;;;;;9.10;1.83;;;16.70;99.90;;;;;;4974917;28;20549;-65
2023/07/20 07:52:59;;;;;;;2.47;1.20;;;16.60;99.90;;;;;;4974488;28;20179;-65
2023/07/20 07:55:26;;;;;;;2.88;1.40;;;16.80;99.90;;;;;;4974587;28;20178;-66
2023/07/20 07:57:52;;;;;;;4.13;1.33;;;16.70;99.90;;;;;;4974859;28;20218;-65
2023/07/20 08:00:18;;;;;;;5.10;1.08;;;16.60;99.90;;;;;;4974838;28;20262;-66
2023/07/20 08:02:46;;;;;;;1.55;1.00;;;16.70;99.90;;;;;;4974421;28;20215;-66
2023/07/20 08:05:12;;;;;;;2.42;1.20;;;16.80;99.90;;;;;;4974214;28;20176;-67
2023/07/20 08:07:38;;;;;;;2.28;1.30;;;16.80;99.90;;;;;;4973873;28;20245;-67
2023/07/20 08:10:04;;;;;;;1.52;1.20;;;17.10;1.00;;;;;;4974652;28;20651;-66
2023/07/20 08:12:30;;;;;;;4.72;1.35;;;17.10;1.00;;;;;;4973932;28;20186;-66
2023/07/20 08:14:56;;;;;;;3.53;1.50;;;17.30;1.00;;;;;;4955220;28;20256;-67
2023/07/20 08:17:21;;;;;;;2.22;1.38;;;17.40;1.00;;;;;;4962815;28;20230;-66
2023/07/20 08:19:47;;;;;;;3.38;1.30;;;17.40;99.90;;;;;;4956845;28;20180;-66
2023/07/20 08:22:13;;;;;;;3.03;1.42;;;17.50;99.90;;;;;;4955079;28;20184;-66
2023/07/20 08:24:40;;;;;;;1.73;1.10;;;18.20;77.80;;;;;;4971734;28;20243;-66
2023/07/20 08:27:06;;;;;;;2.00;1.30;;;17.80;1.00;;;;;;4974177;28;20173;-66
2023/07/20 08:29:32;;;;;;;3.75;1.58;;;18.10;1.00;;;;;;4972826;28;20245;-66
2023/07/20 08:31:58;;;;;;;6.75;1.60;;;17.90;1.00;;;;;;4969430;28;20208;-66
2023/07/20 08:34:24;;;;;;;6.40;1.35;;;;;;;;;;4973924;28;20187;-66
2023/07/20 08:36:49;;;;;;;4.25;1.30;;;18.10;99.90;;;;;;4973566;28;20199;-66
2023/07/20 08:39:15;;;;;;;3.08;1.30;;;18.20;1.00;;;;;;4972733;28;20180;-66
2023/07/20 08:41:42;;;;;;;2.63;1.40;;;18.20;1.00;;;;;;4973945;28;20631;-66
2023/07/20 08:44:08;;;;;;;6.32;1.70;;;18.30;1.00;;;;;;4973761;28;20247;-66
2023/07/20 08:46:36;;;;;;;5.13;1.38;;;18.20;1.00;;;;;;4973842;28;20231;-66
2023/07/20 08:49:02;;;;;;;2.67;1.05;;;18.10;1.00;;;;;;4972634;28;20208;-66
2023/07/20 08:51:30;;;;;;;5.72;1.05;;;18.20;99.90;;;;;;4966439;28;20639;-67
2023/07/20 08:53:56;;;;;;;34.72;4.28;;;18.30;1.00;;;;;;4973359;28;20211;-66
2023/07/20 08:56:25;;;;;;;2.25;1.40;;;18.40;1.00;;;;;;4966808;28;20217;-66
2023/07/20 08:58:53;;;;;;;5.88;1.23;;;18.30;99.90;;;;;;4970733;28;20183;-66
2023/07/20 09:01:19;;;;;;;3.53;1.45;;;18.50;1.00;;;;;;4971793;28;20210;-66
2023/07/20 09:03:46;;;;;;;4.35;1.40;;;18.60;1.00;;;;;;4972462;28;20302;-67
2023/07/20 09:06:12;;;;;;;4.47;1.25;;;18.90;1.00;;;;;;4972678;28;20180;-65
2023/07/20 09:08:39;;;;;;;1.98;1.20;;;19.10;99.90;;;;;;4972623;28;20516;-66
2023/07/20 09:11:05;;;;;;;1.85;1.10;;;19.40;1.00;;;;;;4970893;28;20184;-66
2023/07/20 09:13:32;;;;;;;4.45;1.13;;;20.20;1.00;;;;;;4972399;28;20238;-66
2023/07/20 09:15:58;;;;;;;4.63;1.50;;;19.50;99.90;;;;;;4970973;28;20230;-66
2023/07/20 09:18:25;;;;;;;3.83;1.35;;;20.50;1.00;;;;;;4971647;28;20195;-66
2023/07/20 09:20:51;;;;;;;5.07;1.50;;;20.80;1.00;;;;;;4972034;28;20168;-66
2023/07/20 09:23:16;;;;;;;4.63;1.17;;;20.90;99.90;;;;;;4970416;28;20698;-67
2023/07/20 09:25:42;;;;;;;4.45;1.13;;;21.40;99.90;;;;;;4965346;28;20181;-67
2023/07/20 09:28:08;;;;;;;4.65;1.75;;;21.70;99.90;;;;;;4971719;28;20655;-66
2023/07/20 09:30:34;;;;;;;5.70;1.35;;;20.90;1.00;;;;;;4971318;28;20602;-66
2023/07/20 09:33:00;;;;;;;4.57;1.13;;;20.60;99.90;;;;;;4972793;28;20539;-66
2023/07/20 09:35:26;;;;;;;1.60;1.33;;;20.60;1.00;;;;;;4971695;28;20175;-64
2023/07/20 09:38:02;;;;;;;2.97;1.40;;;20.50;1.00;;;;;;4971705;28;20517;-68
2023/07/20 09:40:28;;;;;;;3.95;1.70;;;21.10;1.00;;;;;;4967147;28;20188;-68
2023/07/20 09:43:03;;;;;;;3.83;1.70;;;21.70;1.00;;;;;;4964264;28;20203;-68
2023/07/20 09:45:39;;;;;;;4.90;1.27;;;22.10;1.00;;;;;;4972367;28;20233;-69
2023/07/20 09:48:09;;;;;;;7.38;1.50;;;22.60;1.00;;;;;;4967265;28;20338;-68
2023/07/20 09:50:48;;;;;;;3.25;1.50;;;23.00;1.00;;;;;;4972567;28;20164;-68
2023/07/20 09:53:14;;;;;;;7.53;1.70;;;22.40;1.00;;;;;;4970180;28;20226;-67
2023/07/20 09:55:43;;;;;;;5.47;1.40;;;22.30;1.00;;;;;;4953370;28;20255;-68
2023/07/20 09:58:10;;;;;;;6.20;1.60;;;21.90;1.00;;;;;;4961529;28;20179;-68
2023/07/20 10:00:39;;;;;;;6.28;1.77;;;21.70;5.40;;;;;;4966612;28;20184;-68
2023/07/20 10:03:06;;;;;;;2.38;1.40;;;21.70;25.40;;;;;;4963864;28;20207;-68
2023/07/20 10:05:39;;;;;;;4.68;1.92;;;21.30;91.00;;;;;;4969642;28;20215;-68
2023/07/20 10:08:10;;;;;;;4.15;1.70;;;21.30;1.00;;;;;;4966214;28;20172;-68
2023/07/20 10:10:38;;;;;;;2.80;1.23;;;21.70;1.00;;;;;;4967175;28;20252;-68
2023/07/20 10:13:06;;;;;;;2.97;1.25;;;22.30;99.90;;;;;;4972192;28;20555;-68
2023/07/20 10:15:42;;;;;;;3.30;1.50;;;22.10;99.90;;;;;;4972098;28;20238;-67
2023/07/20 10:18:24;;;;;;;3.33;1.92;;;22.70;99.90;;;;;;4972143;28;20826;-68
2023/07/20 10:20:54;;;;;;;4.18;1.70;;;23.00;99.90;;;;;;4971397;28;20651;-68
2023/07/20 10:23:19;;;;;;;6.00;1.77;;;23.20;1.00;;;;;;4972154;28;20203;-67
2023/07/20 10:25:46;;;;;;;5.53;1.40;;;23.90;99.90;;;;;;4971562;28;20675;-68
2023/07/20 10:28:13;;;;;;;1.98;1.40;;;23.40;99.90;;;;;;4972267;28;20199;-68
2023/07/20 10:30:39;;;;;;;4.28;1.45;;;23.80;99.90;;;;;;4971745;28;20176;-69
2023/07/20 10:33:06;;;;;;;4.45;1.40;;;24.20;1.00;;;;;;4971417;28;20195;-69
2023/07/20 10:36:12;;;;;;;3.15;1.75;;;24.00;1.00;;;;;;4963999;28;20175;-68
2023/07/20 10:38:46;;;;;;;6.43;1.98;;;24.20;99.90;;;;;;4972088;28;20190;-67
2023/07/20 10:41:39;;;;;;;2.47;1.65;;;24.10;99.90;;;;;;4971558;28;20175;-69
2023/07/20 10:44:07;;;;;;;2.80;1.40;;;24.50;83.50;;;;;;4969187;28;20220;-68
2023/07/20 10:46:34;;;;;;;2.92;1.20;;;24.90;1.00;;;;;;4971526;28;20675;-69
2023/07/20 10:49:06;;;;;;;2.85;1.10;;;24.80;1.00;;;;;;4955245;28;20181;-67
2023/07/20 10:51:48;;;;;;;2.35;1.30;;;25.20;1.00;;;;;;4952698;28;20173;-68
2023/07/20 10:54:19;;;;;;;2.65;1.50;;;25.70;1.00;;;;;;4952745;28;20192;-68
2023/07/20 10:56:48;;;;;;;3.70;1.40;;;25.60;1.00;;;;;;4952554;28;20176;-67
2023/07/20 10:59:25;;;;;;;2.83;1.35;;;25.10;1.00;;;;;;4969127;28;20323;-68
2023/07/20 11:02:01;;;;;;;2.38;1.58;;;24.70;1.00;;;;;;4971215;28;20194;-67
2023/07/20 11:04:39;;;;;;;2.95;1.20;;;25.10;1.00;;;;;;4983437;28;20688;-67
2023/07/20 11:07:08;;;;;;;2.33;1.10;;;25.20;99.90;;;;;;4971144;28;20721;-68
2023/07/20 11:09:38;;;;;;;2.35;1.15;;;24.40;99.90;;;;;;4967302;28;20242;-69
2023/07/20 11:12:12;;;;;;;4.40;1.45;;;24.90;99.90;;;;;;4969458;28;20183;-69
2023/07/20 11:14:56;;;;;;;3.28;1.20;;;25.30;99.90;;;;;;4956877;28;20180;-68
2023/07/20 11:17:32;;;;;;;2.00;1.40;;;25.60;99.90;;;;;;4970428;28;20243;-67
2023/07/20 11:20:03;;;;;;;1.55;1.20;;;26.10;99.90;;;;;;4953615;28;20640;-67
2023/07/20 11:22:31;;;;;;;4.32;1.30;;;25.50;99.90;;;;;;4956412;28;20208;-67
2023/07/20 11:24:57;;;;;;;2.42;1.40;;;25.70;99.90;;;;;;4964846;28;20172;-67
2023/07/20 11:27:23;;;;;;;2.78;1.00;;;26.40;99.90;;;;;;4977396;28;20639;-68
2023/07/20 11:29:50;;;;;;;2.35;1.20;;;26.50;99.90;;;;;;4995187;28;20174;-68
2023/07/20 11:32:22;;;;;;;2.83;1.17;;;26.80;99.90;;;;;;4994749;28;20662;-68
2023/07/20 11:34:49;;;;;;;1.83;1.05;;;26.90;99.90;;;;;;4992324;28;20179;-68
2023/07/20 11:37:14;;;;;;;1.88;1.30;;;27.20;99.90;;;;;;4974942;28;20222;-68
2023/07/20 11:39:40;;;;;;;2.13;1.30;;;26.80;99.90;;;;;;4974754;28;20258;-68
2023/07/20 11:42:06;;;;;;;1.70;1.20;;;26.70;99.90;;;;;;4975166;28;20510;-69
2023/07/20 11:44:32;;;;;;;3.88;1.05;;;26.80;99.90;;;;;;4975700;28;20176;-69
2023/07/20 11:47:04;;;;;;;1.88;1.15;;;27.10;99.90;;;;;;4975123;28;20216;-68
2023/07/20 11:49:38;;;;;;;2.85;1.55;;;27.80;99.90;;;;;;4974972;28;20200;-68
2023/07/20 11:52:06;;;;;;;1.58;1.02;;;26.50;99.90;;;;;;4975128;28;20183;-69
2023/07/20 11:54:33;;;;;;;2.40;1.25;;;26.00;99.90;;;;;;4974674;28;20182;-68
2023/07/20 11:57:01;;;;;;;3.20;1.30;;;25.20;99.90;;;;;;4974529;28;20180;-68
2023/07/20 11:59:27;;;;;;;2.70;1.00;;;25.70;99.90;;;;;;4974405;28;20172;-68
2023/07/20 12:01:53;;;;;;;2.08;1.30;;;26.70;99.90;;;;;;4974781;28;20191;-69
2023/07/20 12:04:22;;;;;;;1.20;0.93;;;27.30;99.90;;;;;;4974337;28;20219;-69
2023/07/20 12:06:48;;;;;;;4.22;1.10;;;27.50;99.90;;;;;;4973806;28;20262;-69
2023/07/20 12:09:16;;;;;;;1.67;0.98;;;28.00;99.90;;;;;;4973751;28;20290;-69
2023/07/20 12:11:45;;;;;;;5.82;1.40;;;28.40;99.90;;;;;;4973751;28;20184;-68
2023/07/20 12:14:11;;;;;;;2.50;1.13;;;28.00;99.90;;;;;;4974430;28;20283;-69
2023/07/20 12:16:40;;;;;;;3.05;1.10;;;27.30;99.90;;;;;;4974682;28;20175;-68
2023/07/20 12:19:13;;;;;;;4.07;1.33;;;28.30;99.90;;;;;;4974067;28;20211;-68
2023/07/20 12:21:41;;;;;;;4.32;1.50;;;28.40;99.90;;;;;;4965186;28;20180;-69
2023/07/20 12:24:09;;;;;;;1.98;1.20;;;28.40;99.90;;;;;;4974465;28;20219;-68
2023/07/20 12:26:35;;;;;;;4.70;1.25;;;28.90;99.90;;;;;;4973600;28;20662;-68
2023/07/20 12:29:00;;;;;;;1.38;1.00;;;28.20;99.90;;;;;;4973963;28;20246;-68
2023/07/20 12:31:30;;;;;;;2.50;1.30;;;27.10;99.90;;;;;;4974178;28;20214;-69
2023/07/20 12:33:57;;;;;;;3.63;1.42;;;27.10;99.90;;;;;;4974195;28;20184;-68
2023/07/20 12:36:23;;;;;;;2.88;1.50;;;26.90;99.90;;;;;;4975069;28;20251;-68
2023/07/20 12:38:49;;;;;;;3.05;1.30;;;26.80;99.90;;;;;;4972894;28;20179;-69
2023/07/20 12:41:15;;;;;;;2.47;1.23;;;26.60;99.90;;;;;;4974231;28;20171;-68
2023/07/20 12:43:41;;;;;;;2.83;1.42;;;26.20;99.90;;;;;;4973244;28;20572;-68
2023/07/20 12:46:08;;;;;;;2.60;1.42;;;25.20;53.50;;;;;;4974975;28;20654;-67
2023/07/20 12:48:34;;;;;;;2.78;1.23;;;24.50;1.00;;;;;;4974414;28;20223;-68
2023/07/20 12:50:59;;;;;;;3.72;1.50;;;24.20;1.00;;;;;;4971212;28;20176;-68
2023/07/20 12:53:25;;;;;;;4.63;1.50;;;24.10;1.00;;;;;;4971832;28;20222;-66
2023/07/20 12:55:50;;;;;;;4.97;1.50;;;24.10;1.00;;;;;;4967114;28;20188;-68